Moroni/Hahaya, Comoros
Current Conditions -  °F | °C
As of 12:00 PM on Tuesday 21 Oct 2014 (Local Time) from FMCZ Reporting Station
Few Clouds Few Clouds  
Wind Chill: 86°   Ceiling: Unl
Heat Index: 90°   Visibility: 6mi
Dew Point: 70°   Wind: 14mph
Humidity: 58%   Direction: 180°S
Pressure: 29.94"   Gusts: NA
Location:  11.53°S, 43.27°E
Report Text: FMCZ 210900Z 18012KT 9999 FEW026 30/21 Q1014 NOSIG
Loading
Personal Weather Stations






























Interactive Weather Map
Tropical Storm Tracking
New forecast layout! Learn more

10-Day Weather Forecast

Advertisements
Track Severe Weather on mobile